createdAt,value
2019-05-09T00:02:28.176Z,12.90
2019-05-09T00:04:57.646Z,17.92
2019-05-09T00:07:29.761Z,11.43
2019-05-09T00:09:59.215Z,11.35
2019-05-09T00:12:28.811Z,11.05
2019-05-09T00:14:58.251Z,11.53
2019-05-09T00:17:27.703Z,15.68
2019-05-09T00:19:58.761Z,9.33
2019-05-09T00:22:28.212Z,16.97
2019-05-09T00:24:57.659Z,14.05
2019-05-09T00:27:27.148Z,13.78
2019-05-09T00:29:56.604Z,13.55
2019-05-09T00:32:27.702Z,14.63
2019-05-09T00:34:58.762Z,11.93
2019-05-09T00:37:29.852Z,12.45
2019-05-09T00:39:59.286Z,17.45
2019-05-09T00:42:28.738Z,11.35
2019-05-09T00:44:59.815Z,14.90
2019-05-09T00:47:29.751Z,15.05
2019-05-09T00:49:59.207Z,11.55
2019-05-09T00:52:28.624Z,8.30
2019-05-09T00:54:58.074Z,14.43
2019-05-09T00:57:29.161Z,15.20
2019-05-09T00:59:58.613Z,16.05
2019-05-09T01:02:28.063Z,16.80
2019-05-09T01:04:57.499Z,18.15
2019-05-09T01:07:26.973Z,12.65
2019-05-09T01:09:56.403Z,21.30
2019-05-09T01:12:27.420Z,14.80
2019-05-09T01:14:56.819Z,20.70
2019-05-09T01:17:26.293Z,16.20
2019-05-09T01:19:55.833Z,15.93
2019-05-09T01:22:25.261Z,20.50
2019-05-09T01:24:54.821Z,21.80
2019-05-09T01:27:26.949Z,21.05
2019-05-09T01:29:56.398Z,12.93
2019-05-09T01:32:27.463Z,18.37
2019-05-09T01:34:59.816Z,18.37
2019-05-09T01:37:29.276Z,23.12
2019-05-09T01:39:58.731Z,19.20
2019-05-09T01:42:28.161Z,19.05
2019-05-09T01:44:57.628Z,19.92
2019-05-09T01:47:27.073Z,16.65
2019-05-09T01:49:56.526Z,16.40
2019-05-09T01:52:25.955Z,23.52
2019-05-09T01:54:55.391Z,23.50
2019-05-09T01:57:24.913Z,21.05
2019-05-09T01:59:54.333Z,21.45
2019-05-09T02:02:23.788Z,21.10
2019-05-09T02:04:53.448Z,23.07
2019-05-09T02:07:27.323Z,21.95
2019-05-09T02:09:56.750Z,23.50
2019-05-09T02:12:26.205Z,26.10
2019-05-09T02:14:57.323Z,22.05
2019-05-09T02:17:28.379Z,20.70
2019-05-09T02:19:57.819Z,20.05
2019-05-09T02:22:28.904Z,17.57
2019-05-09T02:24:58.359Z,18.10
2019-05-09T02:27:27.813Z,16.77
2019-05-09T02:29:57.282Z,15.68
2019-05-09T02:32:26.717Z,13.18
2019-05-09T02:34:56.157Z,14.05
2019-05-09T02:37:28.640Z,16.27
2019-05-09T02:39:59.179Z,14.35
2019-05-09T02:42:28.250Z,14.28
2019-05-09T02:44:59.562Z,13.50
2019-05-09T02:47:29.260Z,13.65
2019-05-09T02:49:59.117Z,17.52
2019-05-09T02:52:28.906Z,12.07
2019-05-09T02:54:58.775Z,12.53
2019-05-09T02:57:29.330Z,14.47
2019-05-09T03:00:01.017Z,12.70
2019-05-09T03:02:32.269Z,16.15
2019-05-09T03:05:01.790Z,19.95
2019-05-09T03:07:32.841Z,15.10
2019-05-09T03:10:02.282Z,15.65
2019-05-09T03:12:35.540Z,14.00
2019-05-09T03:15:02.902Z,16.65
2019-05-09T03:17:32.328Z,15.75
2019-05-09T03:20:01.784Z,15.38
2019-05-09T03:22:31.499Z,17.12
2019-05-09T03:25:00.936Z,19.57
2019-05-09T03:27:32.007Z,21.42
2019-05-09T03:30:03.133Z,19.32
2019-05-09T03:32:32.543Z,19.02
2019-05-09T03:35:01.992Z,19.57
2019-05-09T03:37:31.430Z,21.17
2019-05-09T03:40:00.861Z,16.80
2019-05-09T03:42:41.099Z,17.05
2019-05-09T03:45:01.459Z,19.10
2019-05-09T03:47:35.148Z,15.23
2019-05-09T03:50:08.203Z,21.68
2019-05-09T03:52:37.968Z,17.55
2019-05-09T03:55:11.736Z,17.12
2019-05-09T03:57:42.837Z,19.95
2019-05-09T04:00:13.069Z,18.73
2019-05-09T04:02:42.506Z,19.37
2019-05-09T04:05:11.971Z,18.07
2019-05-09T04:07:41.421Z,14.38
2019-05-09T04:10:10.944Z,22.07
2019-05-09T04:12:52.757Z,18.57
2019-05-09T04:15:11.707Z,15.38
2019-05-09T04:17:42.863Z,15.43
2019-05-09T04:20:14.505Z,18.05
2019-05-09T04:22:44.224Z,14.80
2019-05-09T04:25:15.377Z,17.52
2019-05-09T04:27:48.019Z,20.62
2019-05-09T04:30:18.329Z,16.87
2019-05-09T04:32:48.252Z,19.23
2019-05-09T04:35:17.761Z,18.90
2019-05-09T04:37:48.276Z,20.40
2019-05-09T04:40:18.020Z,20.57
2019-05-09T04:42:47.580Z,18.12
2019-05-09T04:45:18.646Z,19.70
2019-05-09T04:50:24.896Z,18.95
2019-05-09T04:52:51.403Z,19.45
2019-05-09T04:55:22.514Z,17.52
2019-05-09T04:57:51.939Z,18.62
2019-05-09T05:00:23.016Z,18.32
2019-05-09T05:02:53.577Z,16.65
2019-05-09T05:05:23.023Z,13.65
2019-05-09T05:07:52.469Z,15.95
2019-05-09T05:10:21.927Z,15.43
2019-05-09T05:12:51.350Z,16.50
2019-05-09T05:15:20.822Z,17.57
2019-05-09T05:17:50.344Z,13.90
2019-05-09T05:20:21.453Z,17.15
2019-05-09T05:22:52.557Z,11.97
2019-05-09T05:25:21.988Z,12.60
2019-05-09T05:27:51.433Z,14.80
2019-05-09T05:30:20.885Z,14.28
2019-05-09T05:32:51.995Z,13.45
2019-05-09T05:35:23.178Z,13.40
2019-05-09T05:37:52.643Z,13.08
2019-05-09T05:40:22.166Z,11.28
2019-05-09T05:42:51.604Z,8.13
2019-05-09T05:45:21.059Z,8.43
2019-05-09T05:47:52.150Z,10.53
2019-05-09T05:50:21.599Z,7.00
2019-05-09T05:52:51.066Z,6.67
2019-05-09T05:55:20.524Z,7.78
2019-05-09T05:57:49.972Z,8.63
2019-05-09T06:00:23.084Z,6.10
2019-05-09T06:02:52.534Z,7.37
2019-05-09T06:05:21.981Z,5.75
2019-05-09T06:07:51.449Z,7.78
2019-05-09T06:10:21.877Z,5.33
2019-05-09T06:12:51.313Z,6.83
2019-05-09T06:15:20.771Z,7.75
2019-05-09T06:17:50.238Z,11.08
2019-05-09T06:20:19.863Z,5.25
2019-05-09T06:22:49.322Z,6.22
2019-05-09T06:25:20.687Z,5.03
2019-05-09T06:27:49.916Z,5.85
2019-05-09T06:30:24.073Z,5.85
2019-05-09T06:32:53.518Z,5.60
2019-05-09T06:35:24.941Z,5.25
2019-05-09T06:37:54.442Z,12.53
2019-05-09T06:40:25.315Z,8.35
2019-05-09T06:42:55.086Z,7.58
2019-05-09T06:45:27.301Z,7.80
2019-05-09T06:47:58.317Z,8.98
2019-05-09T06:50:28.001Z,8.55
2019-05-09T06:52:57.440Z,9.75
2019-05-09T06:55:27.658Z,9.23
2019-05-09T06:57:58.452Z,10.48
2019-05-09T07:00:35.118Z,5.42
2019-05-09T07:03:08.093Z,5.75
2019-05-09T07:05:39.399Z,5.42
2019-05-09T07:08:10.470Z,6.03
2019-05-09T07:10:39.900Z,5.45
2019-05-09T07:13:09.361Z,7.33
2019-05-09T07:15:38.810Z,6.12
2019-05-09T07:18:08.328Z,4.22
2019-05-09T07:20:37.980Z,5.90
2019-05-09T07:23:08.989Z,6.10
2019-05-09T07:25:40.344Z,5.53
2019-05-09T07:28:09.769Z,4.33
2019-05-09T07:30:40.845Z,16.00
2019-05-09T07:33:11.916Z,6.70
2019-05-09T07:35:41.357Z,10.68
2019-05-09T07:38:10.797Z,5.70
2019-05-09T07:40:40.222Z,6.95
2019-05-09T07:43:09.698Z,10.18
2019-05-09T07:45:40.755Z,8.10
2019-05-09T07:48:10.197Z,8.45
2019-05-09T07:50:39.687Z,6.92
2019-05-09T07:53:09.155Z,6.30
2019-05-09T07:55:38.556Z,8.48
2019-05-09T07:58:08.327Z,8.40
2019-05-09T08:00:38.623Z,7.42
2019-05-09T08:03:12.576Z,6.28
2019-05-09T08:05:39.464Z,5.90
2019-05-09T08:08:13.625Z,9.10
2019-05-09T08:10:44.483Z,7.37
2019-05-09T08:13:22.371Z,10.28
2019-05-09T08:15:51.813Z,6.30
2019-05-09T08:18:21.245Z,5.30
2019-05-09T08:20:50.691Z,5.67
2019-05-09T08:23:20.152Z,6.25
2019-05-09T08:25:49.759Z,8.78
2019-05-09T08:28:20.131Z,5.67
2019-05-09T08:30:49.720Z,8.20
2019-05-09T08:33:19.238Z,7.25
2019-05-09T08:35:52.308Z,6.08
2019-05-09T08:38:19.871Z,8.35
2019-05-09T08:40:50.981Z,7.58
2019-05-09T08:43:20.409Z,9.58
2019-05-09T08:45:49.864Z,6.58
2019-05-09T08:48:19.322Z,7.53
2019-05-09T08:50:50.394Z,7.40
2019-05-09T08:53:19.851Z,9.18
2019-05-09T08:55:49.294Z,6.95
2019-05-09T08:58:19.938Z,9.48
2019-05-09T09:00:49.557Z,7.92
2019-05-09T09:03:19.024Z,9.43
2019-05-09T09:05:48.732Z,9.50
2019-05-09T09:08:18.559Z,20.25
2019-05-09T09:10:48.763Z,9.88
2019-05-09T09:13:18.574Z,17.92
2019-05-09T09:16:05.719Z,15.30
2019-05-09T09:18:19.237Z,10.30
2019-05-09T09:20:48.780Z,9.28
2019-05-09T09:23:18.309Z,9.83
2019-05-09T09:25:48.667Z,9.35
2019-05-09T09:28:18.483Z,6.70
2019-05-09T09:30:48.589Z,9.95
2019-05-09T09:33:18.167Z,10.80
2019-05-09T09:38:23.564Z,9.70
2019-05-09T09:40:52.993Z,10.20
2019-05-09T09:43:22.438Z,9.10
2019-05-09T09:46:06.249Z,12.35
2019-05-09T09:48:23.099Z,12.47
2019-05-09T09:50:52.527Z,17.73
2019-05-09T09:53:22.012Z,12.18
2019-05-09T09:55:51.463Z,9.83
2019-05-09T09:58:20.924Z,7.67
2019-05-09T10:00:52.087Z,10.38
2019-05-09T10:03:21.600Z,10.38
2019-05-09T10:05:51.089Z,9.60
2019-05-09T10:08:20.691Z,10.28
2019-05-09T10:10:50.170Z,11.63
2019-05-09T10:13:19.645Z,9.88
2019-05-09T10:15:50.751Z,11.08
2019-05-09T10:18:21.850Z,12.28
2019-05-09T10:20:52.943Z,14.10
2019-05-09T10:23:22.370Z,10.38
2019-05-09T10:25:51.834Z,11.70
2019-05-09T10:28:21.828Z,11.65
2019-05-09T10:30:51.467Z,12.68
2019-05-09T10:33:20.985Z,9.55
2019-05-09T10:35:50.482Z,10.08
2019-05-09T10:38:19.902Z,11.20
2019-05-09T10:40:53.027Z,13.03
2019-05-09T10:43:34.673Z,12.35
2019-05-09T10:45:57.670Z,8.80
2019-05-09T10:48:28.293Z,10.40
2019-05-09T10:51:04.639Z,10.13
2019-05-09T10:53:28.793Z,9.80
2019-05-09T10:55:58.247Z,18.77
2019-05-09T10:58:28.065Z,14.53
2019-05-09T11:00:58.758Z,10.05
2019-05-09T11:03:28.450Z,14.20
2019-05-09T11:05:58.067Z,11.57
2019-05-09T11:08:28.624Z,11.88
2019-05-09T11:10:58.357Z,12.98
2019-05-09T11:13:28.756Z,12.98
2019-05-09T11:15:58.514Z,10.95
2019-05-09T11:18:28.718Z,8.85
2019-05-09T11:20:58.299Z,13.53
2019-05-09T11:23:29.182Z,10.88
2019-05-09T11:25:58.773Z,12.95
2019-05-09T11:28:28.649Z,14.28
2019-05-09T11:30:58.479Z,10.63
2019-05-09T11:33:28.087Z,10.13
2019-05-09T11:35:58.098Z,14.45
2019-05-09T11:38:34.945Z,14.25
2019-05-09T11:40:58.867Z,11.70
2019-05-09T11:43:29.933Z,10.25
2019-05-09T11:45:59.596Z,11.65
2019-05-09T11:48:29.290Z,11.90
2019-05-09T11:50:59.082Z,16.00
2019-05-09T11:53:28.918Z,12.50
2019-05-09T11:55:58.529Z,13.32
2019-05-09T11:58:28.131Z,11.18
2019-05-09T12:00:57.616Z,12.30
2019-05-09T12:03:27.245Z,15.60
2019-05-09T12:05:58.331Z,13.15
2019-05-09T12:08:27.833Z,13.40
2019-05-09T12:10:59.966Z,11.43
2019-05-09T12:13:29.392Z,19.05
2019-05-09T12:15:58.872Z,12.07
2019-05-09T12:18:28.698Z,13.15
2019-05-09T12:20:58.220Z,13.95
2019-05-09T12:23:29.169Z,15.83
2019-05-09T12:25:58.767Z,10.80
2019-05-09T12:28:28.249Z,13.08
2019-05-09T12:30:57.687Z,10.30
2019-05-09T12:33:28.796Z,11.73
2019-05-09T12:35:59.378Z,15.83
2019-05-09T12:38:32.026Z,17.60
2019-05-09T12:41:01.459Z,13.30
2019-05-09T12:43:30.899Z,12.75
2019-05-09T12:46:00.333Z,14.38
2019-05-09T12:48:29.804Z,11.93
2019-05-09T12:50:59.243Z,14.68
2019-05-09T12:53:28.678Z,16.97
2019-05-09T12:55:59.814Z,13.30
2019-05-09T12:58:32.907Z,12.70
2019-05-09T13:01:02.357Z,10.13
2019-05-09T13:03:31.810Z,14.33
2019-05-09T13:06:01.317Z,12.15
2019-05-09T13:08:30.763Z,13.65
2019-05-09T13:11:02.430Z,14.38
2019-05-09T13:13:32.323Z,11.45
2019-05-09T13:16:03.483Z,17.07
2019-05-09T13:18:34.585Z,13.00
2019-05-09T13:21:04.086Z,15.83
2019-05-09T13:23:33.573Z,16.50
2019-05-09T13:26:03.227Z,24.67
2019-05-09T13:28:32.700Z,19.65
2019-05-09T13:31:02.151Z,22.00
2019-05-09T13:33:31.663Z,19.30
2019-05-09T13:36:01.133Z,15.88
2019-05-09T13:38:30.583Z,15.30
2019-05-09T13:41:00.039Z,13.50
2019-05-09T13:43:29.479Z,16.73
2019-05-09T13:45:58.945Z,11.50
2019-05-09T13:48:56.232Z,14.03
2019-05-09T13:50:59.537Z,15.88
2019-05-09T13:53:28.993Z,16.37
2019-05-09T13:55:58.526Z,17.12
2019-05-09T13:58:28.465Z,19.40
2019-05-09T14:01:02.368Z,25.35
2019-05-09T14:03:29.100Z,20.57
2019-05-09T14:05:58.744Z,16.90
2019-05-09T14:08:28.664Z,14.70
2019-05-09T14:10:58.443Z,15.70
2019-05-09T14:13:28.009Z,19.52
2019-05-09T14:15:57.715Z,18.25
2019-05-09T14:18:27.123Z,22.27
2019-05-09T14:20:57.430Z,18.40
2019-05-09T14:23:35.899Z,14.35
2019-05-09T14:25:59.004Z,26.62
2019-05-09T14:28:28.817Z,16.97
2019-05-09T14:30:59.439Z,16.85
2019-05-09T14:33:29.649Z,15.90
2019-05-09T14:35:59.492Z,15.15
2019-05-09T14:38:29.003Z,16.00
2019-05-09T14:40:59.530Z,15.43
2019-05-09T14:43:29.085Z,15.88
2019-05-09T14:46:02.708Z,17.17
2019-05-09T14:48:32.243Z,18.23
2019-05-09T14:51:01.685Z,14.90
2019-05-09T14:53:31.130Z,18.60
2019-05-09T14:56:00.654Z,24.12
2019-05-09T14:58:30.095Z,20.45
2019-05-09T15:01:00.892Z,15.48
2019-05-09T15:03:33.568Z,19.90
2019-05-09T15:06:03.038Z,17.17
2019-05-09T15:08:32.481Z,17.77
2019-05-09T15:11:02.471Z,25.57
2019-05-09T15:13:31.931Z,23.90
2019-05-09T15:16:01.389Z,26.25
2019-05-09T15:18:30.830Z,25.10
2019-05-09T15:21:00.313Z,27.55
2019-05-09T15:23:31.415Z,28.73
2019-05-09T15:26:00.869Z,20.27
2019-05-09T15:28:31.942Z,29.65
2019-05-09T15:31:01.402Z,20.80
2019-05-09T15:33:30.870Z,20.52
2019-05-09T15:36:00.313Z,18.07
2019-05-09T15:38:29.752Z,23.62
2019-05-09T15:40:59.222Z,19.45
2019-05-09T15:43:28.684Z,18.92
2019-05-09T15:45:59.789Z,20.80
2019-05-09T15:48:29.311Z,19.87
2019-05-09T15:50:58.759Z,18.98
2019-05-09T15:53:28.220Z,20.70
2019-05-09T15:55:58.778Z,20.55
2019-05-09T15:58:28.797Z,19.25
2019-05-09T16:00:58.896Z,20.48
2019-05-09T16:03:28.582Z,14.78
2019-05-09T16:05:58.564Z,12.15
2019-05-09T16:08:28.936Z,21.55
2019-05-09T16:10:58.479Z,17.05
2019-05-09T16:13:28.582Z,13.40
2019-05-09T16:15:58.060Z,18.67
2019-05-09T16:18:29.140Z,14.90
2019-05-09T16:20:58.605Z,15.20
2019-05-09T16:23:29.051Z,18.67
2019-05-09T16:25:58.839Z,17.82
2019-05-09T16:28:28.239Z,13.08
2019-05-09T16:30:58.545Z,12.18
2019-05-09T16:33:28.059Z,15.72
2019-05-09T16:35:57.490Z,17.95
2019-05-09T16:38:41.248Z,16.45
2019-05-09T16:40:58.307Z,15.10
2019-05-09T16:43:28.032Z,19.92
2019-05-09T16:45:58.091Z,15.45
2019-05-09T16:48:27.828Z,18.07
2019-05-09T16:51:03.232Z,15.68
2019-05-09T16:53:28.435Z,16.62
2019-05-09T16:55:58.644Z,14.07
2019-05-09T16:58:28.089Z,14.23
2019-05-09T17:00:57.523Z,17.02
2019-05-09T17:03:28.396Z,20.90
2019-05-09T17:05:58.384Z,19.85
2019-05-09T17:08:28.388Z,21.10
2019-05-09T17:10:58.716Z,21.55
2019-05-09T17:13:29.030Z,26.70
2019-05-09T17:15:58.707Z,22.30
2019-05-09T17:18:28.558Z,20.80
2019-05-09T17:21:14.719Z,19.90
2019-05-09T17:23:31.395Z,18.07
2019-05-09T17:26:03.641Z,18.10
2019-05-09T17:28:33.161Z,21.52
2019-05-09T17:31:02.620Z,26.93
2019-05-09T17:33:32.067Z,24.47
2019-05-09T17:36:01.523Z,21.30
2019-05-09T17:38:30.984Z,17.10
2019-05-09T17:41:00.495Z,15.72
2019-05-09T17:43:29.944Z,14.45
2019-05-09T17:45:59.402Z,15.38
2019-05-09T17:48:29.118Z,17.02
2019-05-09T17:50:58.555Z,13.50
2019-05-09T17:53:29.361Z,16.87
2019-05-09T17:55:59.231Z,19.40
2019-05-09T17:58:33.014Z,15.53
2019-05-09T18:00:59.873Z,17.52
2019-05-09T18:03:29.419Z,13.75
2019-05-09T18:05:58.837Z,21.82
2019-05-09T18:08:28.552Z,14.28
2019-05-09T18:10:58.556Z,18.65
2019-05-09T18:13:30.281Z,18.27
2019-05-09T18:15:59.427Z,18.85
2019-05-09T18:18:28.905Z,16.07
2019-05-09T18:20:58.336Z,17.55
2019-05-09T18:23:28.461Z,18.87
2019-05-09T18:25:58.742Z,20.20
2019-05-09T18:28:29.260Z,22.80
2019-05-09T18:30:58.844Z,18.90
2019-05-09T18:33:29.988Z,21.93
2019-05-09T18:35:59.434Z,23.67
2019-05-09T18:38:33.119Z,24.07
2019-05-09T18:41:06.447Z,20.37
2019-05-09T18:43:34.294Z,19.05
2019-05-09T18:46:03.876Z,27.77
2019-05-09T18:48:33.345Z,23.60
2019-05-09T18:51:02.778Z,31.10
2019-05-09T18:53:32.245Z,22.73
2019-05-09T18:56:01.692Z,21.05
2019-05-09T18:58:31.117Z,19.05
2019-05-09T19:01:00.586Z,23.77
2019-05-09T19:03:30.025Z,26.73
2019-05-09T19:05:59.486Z,26.68
2019-05-09T19:08:28.938Z,19.40
2019-05-09T19:10:58.410Z,25.35
2019-05-09T19:13:27.876Z,22.02
2019-05-09T19:15:59.032Z,20.95
2019-05-09T19:18:30.074Z,28.00
2019-05-09T19:21:01.173Z,22.75
2019-05-09T19:23:30.630Z,29.40
2019-05-09T19:26:01.750Z,28.83
2019-05-09T19:28:31.201Z,25.23
2019-05-09T19:31:00.641Z,29.77
2019-05-09T19:33:30.103Z,25.10
2019-05-09T19:35:59.566Z,25.40
2019-05-09T19:38:29.770Z,24.67
2019-05-09T19:40:59.335Z,20.45
2019-05-09T19:43:28.792Z,25.80
2019-05-09T19:45:58.256Z,23.67
2019-05-09T19:48:27.728Z,25.90
2019-05-09T19:50:57.160Z,27.30
2019-05-09T19:53:26.629Z,24.00
2019-05-09T19:55:56.095Z,24.63
2019-05-09T19:58:25.554Z,25.62
2019-05-09T20:00:54.991Z,28.02
2019-05-09T20:03:24.472Z,26.77
2019-05-09T20:05:53.899Z,27.87
2019-05-09T20:08:23.524Z,26.62
2019-05-09T20:10:54.645Z,29.00
2019-05-09T20:13:25.742Z,26.10
2019-05-09T20:15:55.213Z,29.77
2019-05-09T20:18:24.668Z,28.75
2019-05-09T20:20:54.167Z,26.12
2019-05-09T20:23:23.593Z,21.87
2019-05-09T20:25:53.100Z,27.80
2019-05-09T20:28:23.116Z,35.28
2019-05-09T20:30:52.558Z,22.40
2019-05-09T20:33:22.010Z,30.30
2019-05-09T20:35:51.436Z,33.60
2019-05-09T20:38:21.097Z,28.55
2019-05-09T20:40:50.712Z,26.27
2019-05-09T20:43:20.373Z,29.90
2019-05-09T20:45:50.016Z,25.17
2019-05-09T20:48:19.634Z,25.35
2019-05-09T20:50:49.289Z,27.80
2019-05-09T20:53:18.907Z,27.50
2019-05-09T20:55:48.538Z,23.40
2019-05-09T20:58:18.191Z,27.45
2019-05-09T21:00:47.840Z,24.12
2019-05-09T21:03:17.458Z,23.50
2019-05-09T21:05:47.091Z,21.48
2019-05-09T21:08:16.742Z,24.18
2019-05-09T21:10:46.366Z,20.55
2019-05-09T21:13:15.997Z,22.37
2019-05-09T21:15:45.619Z,24.47
2019-05-09T21:18:15.428Z,21.50
2019-05-09T21:20:45.141Z,25.15
2019-05-09T21:23:24.201Z,15.20
2019-05-09T21:25:46.306Z,13.95
2019-05-09T21:28:16.001Z,13.75
2019-05-09T21:30:46.118Z,14.47
2019-05-09T21:33:15.696Z,19.00
2019-05-09T21:35:45.146Z,17.02
2019-05-09T21:38:14.615Z,16.80
2019-05-09T21:40:44.768Z,16.80
2019-05-09T21:43:14.215Z,15.25
2019-05-09T21:45:43.913Z,16.37
2019-05-09T21:48:13.379Z,16.40
2019-05-09T21:50:42.824Z,13.15
2019-05-09T21:53:12.273Z,11.93
2019-05-09T21:55:41.714Z,11.38
2019-05-09T21:58:11.172Z,11.30
2019-05-09T22:00:43.229Z,16.02
2019-05-09T22:03:12.667Z,16.30
2019-05-09T22:05:42.109Z,13.40
2019-05-09T22:08:11.649Z,12.18
2019-05-09T22:10:41.230Z,18.42
2019-05-09T22:13:10.685Z,11.25
2019-05-09T22:15:40.226Z,16.65
2019-05-09T22:18:09.693Z,14.47
2019-05-09T22:20:39.154Z,17.57
2019-05-09T22:23:08.623Z,15.50
2019-05-09T22:25:38.060Z,15.75
2019-05-09T22:28:07.529Z,22.32
2019-05-09T22:30:36.966Z,17.73
2019-05-09T22:33:06.441Z,17.42
2019-05-09T22:35:35.867Z,21.35
2019-05-09T22:38:06.182Z,14.38
2019-05-09T22:40:35.614Z,18.50
2019-05-09T22:43:05.321Z,22.98
2019-05-09T22:45:34.767Z,18.77
2019-05-09T22:48:04.267Z,15.95
2019-05-09T22:50:33.754Z,17.50
2019-05-09T22:53:03.188Z,20.30
2019-05-09T22:55:32.627Z,14.83
2019-05-09T22:58:02.109Z,18.50
2019-05-09T23:00:31.547Z,17.40
2019-05-09T23:03:00.989Z,21.65
2019-05-09T23:05:30.423Z,19.62
2019-05-09T23:07:59.861Z,20.80
2019-05-09T23:10:29.395Z,19.87
2019-05-09T23:12:58.832Z,15.05
2019-05-09T23:15:28.292Z,19.02
2019-05-09T23:17:57.892Z,16.42
2019-05-09T23:20:29.018Z,12.75
2019-05-09T23:23:00.133Z,17.77
2019-05-09T23:25:29.604Z,14.47
2019-05-09T23:27:59.049Z,11.18
2019-05-09T23:30:28.486Z,10.30
2019-05-09T23:32:57.923Z,15.15
2019-05-09T23:35:27.388Z,15.08
2019-05-09T23:37:56.901Z,11.80
2019-05-09T23:40:26.374Z,13.75
2019-05-09T23:42:55.842Z,12.93
2019-05-09T23:45:25.272Z,12.00
2019-05-09T23:47:54.722Z,13.50
2019-05-09T23:50:24.188Z,15.83
2019-05-09T23:52:53.648Z,11.20
2019-05-09T23:55:24.751Z,14.80
2019-05-09T23:57:55.842Z,16.97
